Hauptseite
METAR-TAF:

METAR-TAF

Flughäfen :

Militärflugplatz Leeuwarden

Leeuwarden, Niederlande

Breite: 53-13N, Länge: 005-46E, Höhe: 1 m

Beobachtung

Neuester Wetterbericht von vor 24 Minuten, um 04:25 UTC
Wind 6 kt aus Süd/Südost, variierte zwischen Ost/Südost und Süd
Temperatur 5°C
Luftfeuchtigkeit 93%
Luftdruck 1024 hPa
Sichtweite: 4900 m
Geschlossene Wolkendecke in der Höhe von 31000 ft
feuchter Dunst

METAR: EHLW 150425Z AUTO 16006KT 120V180 4900 BR OVC310 05/04 Q1024 GRN

Zeit: 05:49 (04:49 UTC)

Prognose

Neuester Wetterbericht von vor 3 Stunden und 20 Minuten, um 01:29 UTC
Gültige Prognose vom 15 um 02 UTC bis 15 um 14 UTC
Wind 7 kt aus Süd/Südost
Sichtweite: 7000 m
Wahrscheinlichkeit 40%
vom 15 um 02 UTC bis 15 um 07 UTC
Sichtweite: 3000 m
feuchter Dunst

TAF: EHLW 150129Z 1502/1514 16007KT 7000 NSC PROB40 1502/1507 3000 BR

Wetterbeobachtungen und Prognosen von mehr als 4000 Flughäfen (METAR und TAF Bericht).

Die verfügbaren Stationen werden durch gelbe und rote Markierungen auf der Karte dargestellt.

Führen Sie die Maus auf sie, um den Namen der Station zu sehen.

Darauf klicken, um die Beobachtung von Wetterbeobachtungen und Prognosen zu sehen.

Um die Karte zu ändern : klicken Sie auf den grünen Tasten mit einem schwarzen Kreuz Zum Vergrößern, auf den grünen Button mit einem Gedankenstrich zu verkleinern, oder auf die grünen Pfeile für benachbarte Karten.


METAR-TAF: